sensor_id;sensor_type;location;lat;lon;timestamp;temperature;humidity
5901;DHT22;2976;49.764;9.796;2023-05-07T00:02:13;12.60;99.90
5901;DHT22;2976;49.764;9.796;2023-05-07T00:04:39;12.50;99.90
5901;DHT22;2976;49.764;9.796;2023-05-07T00:07:05;12.50;99.90
5901;DHT22;2976;49.764;9.796;2023-05-07T00:09:30;12.40;99.90
5901;DHT22;2976;49.764;9.796;2023-05-07T00:11:56;12.40;99.90
5901;DHT22;2976;49.764;9.796;2023-05-07T00:14:22;12.40;99.90
5901;DHT22;2976;49.764;9.796;2023-05-07T00:16:47;12.30;99.90
5901;DHT22;2976;49.764;9.796;2023-05-07T00:19:13;12.30;99.90
5901;DHT22;2976;49.764;9.796;2023-05-07T00:21:38;12.30;99.90
5901;DHT22;2976;49.764;9.796;2023-05-07T00:24:04;12.20;99.90
5901;DHT22;2976;49.764;9.796;2023-05-07T00:26:30;12.20;99.90
5901;DHT22;2976;49.764;9.796;2023-05-07T00:28:55;12.10;99.90
5901;DHT22;2976;49.764;9.796;2023-05-07T00:31:21;12.00;99.90
5901;DHT22;2976;49.764;9.796;2023-05-07T00:33:46;11.90;99.90
5901;DHT22;2976;49.764;9.796;2023-05-07T00:36:12;11.80;99.90
5901;DHT22;2976;49.764;9.796;2023-05-07T00:38:37;11.70;99.90
5901;DHT22;2976;49.764;9.796;2023-05-07T00:41:03;11.70;99.90
5901;DHT22;2976;49.764;9.796;2023-05-07T00:43:29;11.60;99.90
5901;DHT22;2976;49.764;9.796;2023-05-07T00:45:55;11.60;99.90
5901;DHT22;2976;49.764;9.796;2023-05-07T00:48:21;11.60;99.90
5901;DHT22;2976;49.764;9.796;2023-05-07T00:50:46;11.60;99.90
5901;DHT22;2976;49.764;9.796;2023-05-07T00:53:13;11.50;99.90
5901;DHT22;2976;49.764;9.796;2023-05-07T00:55:39;11.60;99.90
5901;DHT22;2976;49.764;9.796;2023-05-07T00:58:05;11.60;99.90
5901;DHT22;2976;49.764;9.796;2023-05-07T01:00:31;11.70;99.90
5901;DHT22;2976;49.764;9.796;2023-05-07T01:02:57;11.70;99.90
5901;DHT22;2976;49.764;9.796;2023-05-07T01:05:24;11.70;99.90
5901;DHT22;2976;49.764;9.796;2023-05-07T01:07:51;11.70;99.90
5901;DHT22;2976;49.764;9.796;2023-05-07T01:10:17;11.70;99.90
5901;DHT22;2976;49.764;9.796;2023-05-07T01:12:44;11.70;99.90
5901;DHT22;2976;49.764;9.796;2023-05-07T01:15:10;11.70;99.90
5901;DHT22;2976;49.764;9.796;2023-05-07T01:17:37;11.50;99.90
5901;DHT22;2976;49.764;9.796;2023-05-07T01:20:04;11.40;99.90
5901;DHT22;2976;49.764;9.796;2023-05-07T01:22:35;11.30;99.90
5901;DHT22;2976;49.764;9.796;2023-05-07T01:25:05;11.20;99.90
5901;DHT22;2976;49.764;9.796;2023-05-07T01:27:31;11.20;99.90
5901;DHT22;2976;49.764;9.796;2023-05-07T01:29:58;11.10;99.90
5901;DHT22;2976;49.764;9.796;2023-05-07T01:35:00;11.10;99.90
5901;DHT22;2976;49.764;9.796;2023-05-07T01:37:26;11.10;99.90
5901;DHT22;2976;49.764;9.796;2023-05-07T01:39:52;11.10;99.90
5901;DHT22;2976;49.764;9.796;2023-05-07T01:42:19;11.10;99.90
5901;DHT22;2976;49.764;9.796;2023-05-07T01:44:45;11.10;99.90
5901;DHT22;2976;49.764;9.796;2023-05-07T01:47:12;11.10;99.90
5901;DHT22;2976;49.764;9.796;2023-05-07T01:49:38;11.10;99.90
5901;DHT22;2976;49.764;9.796;2023-05-07T01:52:03;11.20;99.90
5901;DHT22;2976;49.764;9.796;2023-05-07T01:54:29;11.20;99.90
5901;DHT22;2976;49.764;9.796;2023-05-07T01:56:58;11.30;99.90
5901;DHT22;2976;49.764;9.796;2023-05-07T01:59:24;11.30;99.90
5901;DHT22;2976;49.764;9.796;2023-05-07T02:01:50;11.30;99.90
5901;DHT22;2976;49.764;9.796;2023-05-07T02:04:15;11.30;99.90
5901;DHT22;2976;49.764;9.796;2023-05-07T02:06:41;11.30;99.90
5901;DHT22;2976;49.764;9.796;2023-05-07T02:09:06;11.30;99.90
5901;DHT22;2976;49.764;9.796;2023-05-07T02:11:34;11.30;99.90
5901;DHT22;2976;49.764;9.796;2023-05-07T02:13:59;11.30;99.90
5901;DHT22;2976;49.764;9.796;2023-05-07T02:16:25;11.20;99.90
5901;DHT22;2976;49.764;9.796;2023-05-07T02:18:51;11.30;99.90
5901;DHT22;2976;49.764;9.796;2023-05-07T02:21:16;11.30;99.90
5901;DHT22;2976;49.764;9.796;2023-05-07T02:23:42;11.40;99.90
5901;DHT22;2976;49.764;9.796;2023-05-07T02:26:07;11.50;99.90
5901;DHT22;2976;49.764;9.796;2023-05-07T02:28:33;11.60;99.90
5901;DHT22;2976;49.764;9.796;2023-05-07T02:31:02;11.60;99.90
5901;DHT22;2976;49.764;9.796;2023-05-07T02:33:28;11.70;99.90
5901;DHT22;2976;49.764;9.796;2023-05-07T02:35:54;11.70;99.90
5901;DHT22;2976;49.764;9.796;2023-05-07T02:38:19;11.70;99.90
5901;DHT22;2976;49.764;9.796;2023-05-07T02:40:45;11.50;99.90
5901;DHT22;2976;49.764;9.796;2023-05-07T02:43:10;11.40;99.90
5901;DHT22;2976;49.764;9.796;2023-05-07T02:45:36;11.30;99.90
5901;DHT22;2976;49.764;9.796;2023-05-07T02:48:03;11.20;99.90
5901;DHT22;2976;49.764;9.796;2023-05-07T02:50:29;11.10;99.90
5901;DHT22;2976;49.764;9.796;2023-05-07T02:52:55;11.10;99.90
5901;DHT22;2976;49.764;9.796;2023-05-07T02:55:20;11.10;99.90
5901;DHT22;2976;49.764;9.796;2023-05-07T02:57:46;11.10;99.90
5901;DHT22;2976;49.764;9.796;2023-05-07T03:00:16;11.10;99.90
5901;DHT22;2976;49.764;9.796;2023-05-07T03:02:43;11.20;99.90
5901;DHT22;2976;49.764;9.796;2023-05-07T03:05:09;11.20;99.90
5901;DHT22;2976;49.764;9.796;2023-05-07T03:07:35;11.30;99.90
5901;DHT22;2976;49.764;9.796;2023-05-07T03:10:01;11.50;99.90
5901;DHT22;2976;49.764;9.796;2023-05-07T03:12:27;11.50;99.90
5901;DHT22;2976;49.764;9.796;2023-05-07T03:14:52;11.60;99.90
5901;DHT22;2976;49.764;9.796;2023-05-07T03:17:18;11.60;99.90
5901;DHT22;2976;49.764;9.796;2023-05-07T03:19:43;11.70;99.90
5901;DHT22;2976;49.764;9.796;2023-05-07T03:22:09;11.70;99.90
5901;DHT22;2976;49.764;9.796;2023-05-07T03:24:34;11.60;99.90
5901;DHT22;2976;49.764;9.796;2023-05-07T03:27:00;11.60;99.90
5901;DHT22;2976;49.764;9.796;2023-05-07T03:29:26;11.60;99.90
5901;DHT22;2976;49.764;9.796;2023-05-07T03:31:52;11.60;99.90
5901;DHT22;2976;49.764;9.796;2023-05-07T03:34:17;11.60;99.90
5901;DHT22;2976;49.764;9.796;2023-05-07T03:36:50;11.60;99.90
5901;DHT22;2976;49.764;9.796;2023-05-07T03:39:16;11.60;99.90
5901;DHT22;2976;49.764;9.796;2023-05-07T03:41:41;11.60;99.90
5901;DHT22;2976;49.764;9.796;2023-05-07T03:44:07;11.60;99.90
5901;DHT22;2976;49.764;9.796;2023-05-07T03:46:33;11.60;99.90
5901;DHT22;2976;49.764;9.796;2023-05-07T03:48:59;11.60;99.90
5901;DHT22;2976;49.764;9.796;2023-05-07T03:51:25;11.60;99.90
5901;DHT22;2976;49.764;9.796;2023-05-07T03:53:51;11.60;99.90
5901;DHT22;2976;49.764;9.796;2023-05-07T03:56:18;11.60;99.90
5901;DHT22;2976;49.764;9.796;2023-05-07T03:58:44;11.60;99.90
5901;DHT22;2976;49.764;9.796;2023-05-07T04:01:10;11.60;99.90
5901;DHT22;2976;49.764;9.796;2023-05-07T04:03:35;11.60;99.90
5901;DHT22;2976;49.764;9.796;2023-05-07T04:06:01;11.60;99.90
5901;DHT22;2976;49.764;9.796;2023-05-07T04:08:26;11.60;99.90
5901;DHT22;2976;49.764;9.796;2023-05-07T04:10:56;11.60;99.90
5901;DHT22;2976;49.764;9.796;2023-05-07T04:13:22;11.60;99.90
5901;DHT22;2976;49.764;9.796;2023-05-07T04:15:48;11.60;99.90
5901;DHT22;2976;49.764;9.796;2023-05-07T04:18:14;11.60;99.90
5901;DHT22;2976;49.764;9.796;2023-05-07T04:20:40;11.60;99.90
5901;DHT22;2976;49.764;9.796;2023-05-07T04:23:05;11.70;99.90
5901;DHT22;2976;49.764;9.796;2023-05-07T04:25:32;11.70;99.90
5901;DHT22;2976;49.764;9.796;2023-05-07T04:27:58;11.80;99.90
5901;DHT22;2976;49.764;9.796;2023-05-07T04:30:24;11.80;99.90
5901;DHT22;2976;49.764;9.796;2023-05-07T04:32:50;11.90;99.90
5901;DHT22;2976;49.764;9.796;2023-05-07T04:35:15;11.90;99.90
5901;DHT22;2976;49.764;9.796;2023-05-07T04:37:41;12.00;99.90
5901;DHT22;2976;49.764;9.796;2023-05-07T04:40:07;12.00;99.90
5901;DHT22;2976;49.764;9.796;2023-05-07T04:42:32;12.10;99.90
5901;DHT22;2976;49.764;9.796;2023-05-07T04:44:58;12.20;99.90
5901;DHT22;2976;49.764;9.796;2023-05-07T04:47:24;12.40;99.90
5901;DHT22;2976;49.764;9.796;2023-05-07T04:49:49;12.50;99.90
5901;DHT22;2976;49.764;9.796;2023-05-07T04:52:15;12.60;99.90
5901;DHT22;2976;49.764;9.796;2023-05-07T04:54:41;12.70;99.90
5901;DHT22;2976;49.764;9.796;2023-05-07T04:57:06;12.80;99.90
5901;DHT22;2976;49.764;9.796;2023-05-07T04:59:32;12.80;99.90
5901;DHT22;2976;49.764;9.796;2023-05-07T05:01:58;12.80;99.90
5901;DHT22;2976;49.764;9.796;2023-05-07T05:04:23;12.90;99.90
5901;DHT22;2976;49.764;9.796;2023-05-07T05:06:49;12.90;99.90
5901;DHT22;2976;49.764;9.796;2023-05-07T05:09:15;13.00;99.90
5901;DHT22;2976;49.764;9.796;2023-05-07T05:11:41;13.00;99.90
5901;DHT22;2976;49.764;9.796;2023-05-07T05:14:07;13.00;99.90
5901;DHT22;2976;49.764;9.796;2023-05-07T05:16:32;13.00;99.90
5901;DHT22;2976;49.764;9.796;2023-05-07T05:18:58;13.10;99.90
5901;DHT22;2976;49.764;9.796;2023-05-07T05:21:24;13.10;99.90
5901;DHT22;2976;49.764;9.796;2023-05-07T05:23:50;13.10;99.90
5901;DHT22;2976;49.764;9.796;2023-05-07T05:26:15;13.10;99.90
5901;DHT22;2976;49.764;9.796;2023-05-07T05:28:41;13.20;99.90
5901;DHT22;2976;49.764;9.796;2023-05-07T05:31:06;13.30;99.90
5901;DHT22;2976;49.764;9.796;2023-05-07T05:33:32;13.30;99.90
5901;DHT22;2976;49.764;9.796;2023-05-07T05:35:58;13.50;99.90
5901;DHT22;2976;49.764;9.796;2023-05-07T05:38:23;13.60;99.90
5901;DHT22;2976;49.764;9.796;2023-05-07T05:40:49;13.80;99.90
5901;DHT22;2976;49.764;9.796;2023-05-07T05:43:14;13.90;99.90
5901;DHT22;2976;49.764;9.796;2023-05-07T05:45:40;13.90;99.90
5901;DHT22;2976;49.764;9.796;2023-05-07T05:48:06;14.00;99.90
5901;DHT22;2976;49.764;9.796;2023-05-07T05:50:31;14.10;99.90
5901;DHT22;2976;49.764;9.796;2023-05-07T05:52:57;14.20;99.90
5901;DHT22;2976;49.764;9.796;2023-05-07T05:55:23;14.10;99.90
5901;DHT22;2976;49.764;9.796;2023-05-07T05:57:49;14.10;99.90
5901;DHT22;2976;49.764;9.796;2023-05-07T06:00:16;14.20;99.90
5901;DHT22;2976;49.764;9.796;2023-05-07T06:02:41;14.30;99.90
5901;DHT22;2976;49.764;9.796;2023-05-07T06:05:08;14.30;99.90
5901;DHT22;2976;49.764;9.796;2023-05-07T06:07:34;14.50;99.90
5901;DHT22;2976;49.764;9.796;2023-05-07T06:10:00;14.60;99.90
5901;DHT22;2976;49.764;9.796;2023-05-07T06:12:26;14.70;99.90
5901;DHT22;2976;49.764;9.796;2023-05-07T06:14:52;14.60;99.90
5901;DHT22;2976;49.764;9.796;2023-05-07T06:17:17;14.70;99.90
5901;DHT22;2976;49.764;9.796;2023-05-07T06:19:43;14.60;99.90
5901;DHT22;2976;49.764;9.796;2023-05-07T06:22:09;14.70;99.90
5901;DHT22;2976;49.764;9.796;2023-05-07T06:24:35;14.90;99.90
5901;DHT22;2976;49.764;9.796;2023-05-07T06:27:00;14.90;99.90
5901;DHT22;2976;49.764;9.796;2023-05-07T06:29:26;15.00;99.90
5901;DHT22;2976;49.764;9.796;2023-05-07T06:31:52;15.10;99.90
5901;DHT22;2976;49.764;9.796;2023-05-07T06:34:18;15.20;99.90
5901;DHT22;2976;49.764;9.796;2023-05-07T06:36:43;15.50;99.90
5901;DHT22;2976;49.764;9.796;2023-05-07T06:39:09;15.60;99.90
5901;DHT22;2976;49.764;9.796;2023-05-07T06:41:35;15.50;99.90
5901;DHT22;2976;49.764;9.796;2023-05-07T06:44:02;15.70;99.90
5901;DHT22;2976;49.764;9.796;2023-05-07T06:46:28;15.50;99.90
5901;DHT22;2976;49.764;9.796;2023-05-07T06:48:53;15.30;99.90
5901;DHT22;2976;49.764;9.796;2023-05-07T06:51:19;15.40;99.90
5901;DHT22;2976;49.764;9.796;2023-05-07T06:53:45;15.60;99.90
5901;DHT22;2976;49.764;9.796;2023-05-07T06:56:10;15.90;99.90
5901;DHT22;2976;49.764;9.796;2023-05-07T06:58:37;16.10;99.90
5901;DHT22;2976;49.764;9.796;2023-05-07T07:01:02;16.30;90.10
5901;DHT22;2976;49.764;9.796;2023-05-07T07:03:28;16.20;85.10
5901;DHT22;2976;49.764;9.796;2023-05-07T07:05:54;16.20;89.70
5901;DHT22;2976;49.764;9.796;2023-05-07T07:08:21;16.40;80.30
5901;DHT22;2976;49.764;9.796;2023-05-07T07:10:47;16.40;74.50
5901;DHT22;2976;49.764;9.796;2023-05-07T07:13:13;16.80;67.80
5901;DHT22;2976;49.764;9.796;2023-05-07T07:15:39;16.90;50.60
5901;DHT22;2976;49.764;9.796;2023-05-07T07:18:05;17.00;31.70
5901;DHT22;2976;49.764;9.796;2023-05-07T07:20:31;17.10;48.30
5901;DHT22;2976;49.764;9.796;2023-05-07T07:22:56;17.20;59.30
5901;DHT22;2976;49.764;9.796;2023-05-07T07:25:22;17.60;22.80
5901;DHT22;2976;49.764;9.796;2023-05-07T07:27:48;18.10;1.00
5901;DHT22;2976;49.764;9.796;2023-05-07T07:30:14;18.20;1.00
5901;DHT22;2976;49.764;9.796;2023-05-07T07:32:40;18.30;1.00
5901;DHT22;2976;49.764;9.796;2023-05-07T07:35:06;18.00;1.00
5901;DHT22;2976;49.764;9.796;2023-05-07T07:37:31;17.90;1.00
5901;DHT22;2976;49.764;9.796;2023-05-07T07:39:57;18.00;1.00
5901;DHT22;2976;49.764;9.796;2023-05-07T07:42:22;17.90;1.00
5901;DHT22;2976;49.764;9.796;2023-05-07T07:44:48;17.90;1.00
5901;DHT22;2976;49.764;9.796;2023-05-07T07:47:13;18.10;99.90
5901;DHT22;2976;49.764;9.796;2023-05-07T07:49:39;18.00;20.30
5901;DHT22;2976;49.764;9.796;2023-05-07T07:52:04;18.00;99.90
5901;DHT22;2976;49.764;9.796;2023-05-07T07:54:30;17.80;1.00
5901;DHT22;2976;49.764;9.796;2023-05-07T07:56:56;17.70;1.00
5901;DHT22;2976;49.764;9.796;2023-05-07T07:59:21;17.60;1.00
5901;DHT22;2976;49.764;9.796;2023-05-07T08:01:47;17.40;99.90
5901;DHT22;2976;49.764;9.796;2023-05-07T08:04:15;17.70;1.00
5901;DHT22;2976;49.764;9.796;2023-05-07T08:06:41;17.80;1.00
5901;DHT22;2976;49.764;9.796;2023-05-07T08:09:06;17.90;99.90
5901;DHT22;2976;49.764;9.796;2023-05-07T08:11:32;17.70;99.90
5901;DHT22;2976;49.764;9.796;2023-05-07T08:13:57;17.40;99.90
5901;DHT22;2976;49.764;9.796;2023-05-07T08:16:23;17.50;1.00
5901;DHT22;2976;49.764;9.796;2023-05-07T08:18:48;17.70;1.00
5901;DHT22;2976;49.764;9.796;2023-05-07T08:21:14;17.60;99.90
5901;DHT22;2976;49.764;9.796;2023-05-07T08:23:40;17.90;1.00
5901;DHT22;2976;49.764;9.796;2023-05-07T08:26:05;17.80;1.00
5901;DHT22;2976;49.764;9.796;2023-05-07T08:28:32;18.00;1.00
5901;DHT22;2976;49.764;9.796;2023-05-07T08:30:58;18.10;99.90
5901;DHT22;2976;49.764;9.796;2023-05-07T08:33:25;17.80;99.90
5901;DHT22;2976;49.764;9.796;2023-05-07T08:35:51;17.40;2.00
5901;DHT22;2976;49.764;9.796;2023-05-07T08:38:16;17.40;1.00
5901;DHT22;2976;49.764;9.796;2023-05-07T08:40:42;17.30;1.00
5901;DHT22;2976;49.764;9.796;2023-05-07T08:43:08;17.40;1.00
5901;DHT22;2976;49.764;9.796;2023-05-07T08:45:34;17.70;1.00
5901;DHT22;2976;49.764;9.796;2023-05-07T08:48:02;18.20;99.90
5901;DHT22;2976;49.764;9.796;2023-05-07T08:50:29;18.50;1.00
5901;DHT22;2976;49.764;9.796;2023-05-07T08:52:55;18.60;1.00
5901;DHT22;2976;49.764;9.796;2023-05-07T08:55:22;18.60;99.90
5901;DHT22;2976;49.764;9.796;2023-05-07T08:57:48;19.30;99.90
5901;DHT22;2976;49.764;9.796;2023-05-07T09:00:14;19.60;1.00
5901;DHT22;2976;49.764;9.796;2023-05-07T09:02:40;19.60;4.20
5901;DHT22;2976;49.764;9.796;2023-05-07T09:05:06;19.10;99.90
5901;DHT22;2976;49.764;9.796;2023-05-07T09:07:32;18.70;94.40
5901;DHT22;2976;49.764;9.796;2023-05-07T09:09:57;18.80;1.00
5901;DHT22;2976;49.764;9.796;2023-05-07T09:12:23;18.90;1.00
5901;DHT22;2976;49.764;9.796;2023-05-07T09:14:49;19.00;1.00
5901;DHT22;2976;49.764;9.796;2023-05-07T09:17:16;18.90;1.00
5901;DHT22;2976;49.764;9.796;2023-05-07T09:19:44;19.10;99.90
5901;DHT22;2976;49.764;9.796;2023-05-07T09:22:10;19.00;99.90
5901;DHT22;2976;49.764;9.796;2023-05-07T09:24:37;19.10;1.00
5901;DHT22;2976;49.764;9.796;2023-05-07T09:27:04;19.00;1.00
5901;DHT22;2976;49.764;9.796;2023-05-07T09:29:30;19.20;99.90
5901;DHT22;2976;49.764;9.796;2023-05-07T09:32:04;19.30;1.00
5901;DHT22;2976;49.764;9.796;2023-05-07T09:34:30;19.70;99.90
5901;DHT22;2976;49.764;9.796;2023-05-07T09:37:01;20.50;99.90
5901;DHT22;2976;49.764;9.796;2023-05-07T09:39:26;21.50;99.90
5901;DHT22;2976;49.764;9.796;2023-05-07T09:42:03;22.30;99.90
5901;DHT22;2976;49.764;9.796;2023-05-07T09:44:29;22.60;1.00
5901;DHT22;2976;49.764;9.796;2023-05-07T09:46:58;22.70;1.00
5901;DHT22;2976;49.764;9.796;2023-05-07T09:49:29;22.70;1.00
5901;DHT22;2976;49.764;9.796;2023-05-07T09:51:55;23.00;1.00
5901;DHT22;2976;49.764;9.796;2023-05-07T09:54:22;22.90;1.00
5901;DHT22;2976;49.764;9.796;2023-05-07T09:56:52;22.60;1.00
5901;DHT22;2976;49.764;9.796;2023-05-07T09:59:19;23.30;1.00
5901;DHT22;2976;49.764;9.796;2023-05-07T10:01:45;24.10;99.90
5901;DHT22;2976;49.764;9.796;2023-05-07T10:04:12;24.40;99.90
5901;DHT22;2976;49.764;9.796;2023-05-07T10:06:38;23.90;99.90
5901;DHT22;2976;49.764;9.796;2023-05-07T10:09:04;23.30;99.90
5901;DHT22;2976;49.764;9.796;2023-05-07T10:11:34;23.20;99.90
5901;DHT22;2976;49.764;9.796;2023-05-07T10:14:01;23.00;99.90
5901;DHT22;2976;49.764;9.796;2023-05-07T10:16:29;22.50;1.00
5901;DHT22;2976;49.764;9.796;2023-05-07T10:18:58;22.60;1.00
5901;DHT22;2976;49.764;9.796;2023-05-07T10:21:24;22.40;1.00
5901;DHT22;2976;49.764;9.796;2023-05-07T10:24:00;22.60;1.00
5901;DHT22;2976;49.764;9.796;2023-05-07T10:26:29;22.30;1.00
5901;DHT22;2976;49.764;9.796;2023-05-07T10:29:03;21.70;48.10
5901;DHT22;2976;49.764;9.796;2023-05-07T10:34:35;22.10;63.50
5901;DHT22;2976;49.764;9.796;2023-05-07T10:37:01;21.90;1.00
5901;DHT22;2976;49.764;9.796;2023-05-07T10:39:28;22.00;1.00
5901;DHT22;2976;49.764;9.796;2023-05-07T10:41:53;21.60;1.00
5901;DHT22;2976;49.764;9.796;2023-05-07T10:44:26;21.70;33.10
5901;DHT22;2976;49.764;9.796;2023-05-07T10:47:05;21.60;99.90
5901;DHT22;2976;49.764;9.796;2023-05-07T10:49:31;22.00;99.90
5901;DHT22;2976;49.764;9.796;2023-05-07T10:52:20;22.80;1.00
5901;DHT22;2976;49.764;9.796;2023-05-07T10:54:46;23.40;99.90
5901;DHT22;2976;49.764;9.796;2023-05-07T10:57:36;23.40;99.90
5901;DHT22;2976;49.764;9.796;2023-05-07T11:05:28;23.00;99.90
5901;DHT22;2976;49.764;9.796;2023-05-07T11:07:55;22.60;1.00
5901;DHT22;2976;49.764;9.796;2023-05-07T11:10:21;22.90;1.00
5901;DHT22;2976;49.764;9.796;2023-05-07T11:12:51;23.40;99.90
5901;DHT22;2976;49.764;9.796;2023-05-07T11:15:37;23.50;99.90
5901;DHT22;2976;49.764;9.796;2023-05-07T11:18:03;23.60;99.90
5901;DHT22;2976;49.764;9.796;2023-05-07T11:20:58;23.90;99.90
5901;DHT22;2976;49.764;9.796;2023-05-07T11:26:07;23.60;99.90
5901;DHT22;2976;49.764;9.796;2023-05-07T11:28:40;23.30;99.90
5901;DHT22;2976;49.764;9.796;2023-05-07T11:31:06;23.40;1.00
5901;DHT22;2976;49.764;9.796;2023-05-07T11:33:32;23.70;99.90
5901;DHT22;2976;49.764;9.796;2023-05-07T11:35:58;23.30;99.90
5901;DHT22;2976;49.764;9.796;2023-05-07T11:38:25;23.20;1.00
5901;DHT22;2976;49.764;9.796;2023-05-07T11:40:52;23.50;99.90
5901;DHT22;2976;49.764;9.796;2023-05-07T11:43:19;23.40;99.90
5901;DHT22;2976;49.764;9.796;2023-05-07T11:45:45;23.50;99.90
5901;DHT22;2976;49.764;9.796;2023-05-07T11:48:13;23.30;1.00
5901;DHT22;2976;49.764;9.796;2023-05-07T11:51:01;23.50;99.90
5901;DHT22;2976;49.764;9.796;2023-05-07T11:53:31;23.90;99.90
5901;DHT22;2976;49.764;9.796;2023-05-07T11:56:00;24.40;99.90
5901;DHT22;2976;49.764;9.796;2023-05-07T11:58:25;24.30;99.90
5901;DHT22;2976;49.764;9.796;2023-05-07T12:00:52;23.70;99.90
5901;DHT22;2976;49.764;9.796;2023-05-07T12:03:18;23.70;99.90
5901;DHT22;2976;49.764;9.796;2023-05-07T12:05:45;24.10;1.00
5901;DHT22;2976;49.764;9.796;2023-05-07T12:08:29;24.20;99.90
5901;DHT22;2976;49.764;9.796;2023-05-07T12:10:54;24.00;99.90
5901;DHT22;2976;49.764;9.796;2023-05-07T12:13:22;24.00;99.90
5901;DHT22;2976;49.764;9.796;2023-05-07T12:15:52;24.40;99.90
5901;DHT22;2976;49.764;9.796;2023-05-07T12:18:18;24.40;99.90
5901;DHT22;2976;49.764;9.796;2023-05-07T12:20:44;24.30;99.90
5901;DHT22;2976;49.764;9.796;2023-05-07T12:23:10;23.90;99.90
5901;DHT22;2976;49.764;9.796;2023-05-07T12:25:37;23.60;99.90
5901;DHT22;2976;49.764;9.796;2023-05-07T12:28:03;23.70;99.90
5901;DHT22;2976;49.764;9.796;2023-05-07T12:30:37;23.90;99.90
5901;DHT22;2976;49.764;9.796;2023-05-07T12:33:02;23.80;99.90
5901;DHT22;2976;49.764;9.796;2023-05-07T12:35:31;23.20;99.90
5901;DHT22;2976;49.764;9.796;2023-05-07T12:37:58;22.90;99.90
5901;DHT22;2976;49.764;9.796;2023-05-07T12:40:44;23.00;99.90
5901;DHT22;2976;49.764;9.796;2023-05-07T12:43:18;23.00;99.90
5901;DHT22;2976;49.764;9.796;2023-05-07T12:45:46;23.30;99.90
5901;DHT22;2976;49.764;9.796;2023-05-07T12:48:12;23.50;99.90
5901;DHT22;2976;49.764;9.796;2023-05-07T12:50:37;23.60;99.90
5901;DHT22;2976;49.764;9.796;2023-05-07T12:53:04;23.60;99.90
5901;DHT22;2976;49.764;9.796;2023-05-07T12:55:41;23.70;99.90
5901;DHT22;2976;49.764;9.796;2023-05-07T12:58:07;23.80;99.90
5901;DHT22;2976;49.764;9.796;2023-05-07T13:00:35;23.50;99.90
5901;DHT22;2976;49.764;9.796;2023-05-07T13:03:01;23.40;99.90
5901;DHT22;2976;49.764;9.796;2023-05-07T13:05:26;23.30;99.90
5901;DHT22;2976;49.764;9.796;2023-05-07T13:07:55;23.20;99.90
5901;DHT22;2976;49.764;9.796;2023-05-07T13:10:22;23.40;99.90
5901;DHT22;2976;49.764;9.796;2023-05-07T13:12:49;23.70;99.90
5901;DHT22;2976;49.764;9.796;2023-05-07T13:15:14;23.50;99.90
5901;DHT22;2976;49.764;9.796;2023-05-07T13:17:41;23.70;99.90
5901;DHT22;2976;49.764;9.796;2023-05-07T13:20:08;23.70;99.90
5901;DHT22;2976;49.764;9.796;2023-05-07T13:22:34;24.00;99.90
5901;DHT22;2976;49.764;9.796;2023-05-07T13:24:59;24.10;99.90
5901;DHT22;2976;49.764;9.796;2023-05-07T13:27:25;23.90;99.90
5901;DHT22;2976;49.764;9.796;2023-05-07T13:29:51;23.80;99.90
5901;DHT22;2976;49.764;9.796;2023-05-07T13:32:17;23.90;99.90
5901;DHT22;2976;49.764;9.796;2023-05-07T13:34:42;23.80;99.90
5901;DHT22;2976;49.764;9.796;2023-05-07T13:37:08;23.70;99.90
5901;DHT22;2976;49.764;9.796;2023-05-07T13:39:33;23.70;99.90
5901;DHT22;2976;49.764;9.796;2023-05-07T13:41:59;23.80;99.90
5901;DHT22;2976;49.764;9.796;2023-05-07T13:44:24;23.90;99.90
5901;DHT22;2976;49.764;9.796;2023-05-07T13:46:50;24.20;99.90
5901;DHT22;2976;49.764;9.796;2023-05-07T13:49:16;24.10;99.90
5901;DHT22;2976;49.764;9.796;2023-05-07T13:51:42;24.00;99.90
5901;DHT22;2976;49.764;9.796;2023-05-07T13:54:07;24.20;99.90
5901;DHT22;2976;49.764;9.796;2023-05-07T13:56:33;24.00;99.90
5901;DHT22;2976;49.764;9.796;2023-05-07T13:58:59;23.80;99.90
5901;DHT22;2976;49.764;9.796;2023-05-07T14:01:24;23.60;99.90
5901;DHT22;2976;49.764;9.796;2023-05-07T14:03:50;23.70;99.90
5901;DHT22;2976;49.764;9.796;2023-05-07T14:06:16;23.50;99.90
5901;DHT22;2976;49.764;9.796;2023-05-07T14:08:41;23.60;99.90
5901;DHT22;2976;49.764;9.796;2023-05-07T14:11:07;23.60;99.90
5901;DHT22;2976;49.764;9.796;2023-05-07T14:13:32;23.60;99.90
5901;DHT22;2976;49.764;9.796;2023-05-07T14:15:59;23.60;99.90
5901;DHT22;2976;49.764;9.796;2023-05-07T14:18:26;23.90;99.90
5901;DHT22;2976;49.764;9.796;2023-05-07T14:20:51;24.00;99.90
5901;DHT22;2976;49.764;9.796;2023-05-07T14:23:17;24.00;99.90
5901;DHT22;2976;49.764;9.796;2023-05-07T14:25:44;23.90;99.90
5901;DHT22;2976;49.764;9.796;2023-05-07T14:28:11;24.00;99.90
5901;DHT22;2976;49.764;9.796;2023-05-07T14:30:37;23.90;99.90
5901;DHT22;2976;49.764;9.796;2023-05-07T14:33:02;23.80;99.90
5901;DHT22;2976;49.764;9.796;2023-05-07T14:35:28;23.70;99.90
5901;DHT22;2976;49.764;9.796;2023-05-07T14:37:53;23.50;99.90
5901;DHT22;2976;49.764;9.796;2023-05-07T14:40:19;23.60;99.90
5901;DHT22;2976;49.764;9.796;2023-05-07T14:42:44;23.50;99.90
5901;DHT22;2976;49.764;9.796;2023-05-07T14:45:10;23.60;99.90
5901;DHT22;2976;49.764;9.796;2023-05-07T14:47:36;23.70;99.90
5901;DHT22;2976;49.764;9.796;2023-05-07T14:50:01;23.70;99.90
5901;DHT22;2976;49.764;9.796;2023-05-07T14:52:27;23.50;99.90
5901;DHT22;2976;49.764;9.796;2023-05-07T14:54:53;23.30;99.90
5901;DHT22;2976;49.764;9.796;2023-05-07T14:57:18;23.00;99.90
5901;DHT22;2976;49.764;9.796;2023-05-07T14:59:44;22.90;99.90
5901;DHT22;2976;49.764;9.796;2023-05-07T15:02:11;22.80;99.90
5901;DHT22;2976;49.764;9.796;2023-05-07T15:04:37;22.80;99.90
5901;DHT22;2976;49.764;9.796;2023-05-07T15:07:11;22.90;99.90
5901;DHT22;2976;49.764;9.796;2023-05-07T15:09:37;22.80;99.90
5901;DHT22;2976;49.764;9.796;2023-05-07T15:12:02;22.70;99.90
5901;DHT22;2976;49.764;9.796;2023-05-07T15:14:29;22.70;99.90
5901;DHT22;2976;49.764;9.796;2023-05-07T15:16:54;22.60;99.90
5901;DHT22;2976;49.764;9.796;2023-05-07T15:19:20;22.60;99.90
5901;DHT22;2976;49.764;9.796;2023-05-07T15:21:47;22.50;99.90
5901;DHT22;2976;49.764;9.796;2023-05-07T15:24:13;22.30;99.90
5901;DHT22;2976;49.764;9.796;2023-05-07T15:26:38;22.30;99.90
5901;DHT22;2976;49.764;9.796;2023-05-07T15:29:04;22.10;99.90
5901;DHT22;2976;49.764;9.796;2023-05-07T15:31:35;22.10;99.90
5901;DHT22;2976;49.764;9.796;2023-05-07T15:34:02;22.00;1.00
5901;DHT22;2976;49.764;9.796;2023-05-07T15:36:28;21.90;1.00
5901;DHT22;2976;49.764;9.796;2023-05-07T15:38:53;21.80;1.00
5901;DHT22;2976;49.764;9.796;2023-05-07T15:41:20;21.70;1.00
5901;DHT22;2976;49.764;9.796;2023-05-07T15:43:48;21.60;1.00
5901;DHT22;2976;49.764;9.796;2023-05-07T15:46:18;21.50;1.00
5901;DHT22;2976;49.764;9.796;2023-05-07T15:48:44;21.50;1.00
5901;DHT22;2976;49.764;9.796;2023-05-07T15:51:09;21.50;1.00
5901;DHT22;2976;49.764;9.796;2023-05-07T15:53:35;21.50;1.00
5901;DHT22;2976;49.764;9.796;2023-05-07T15:56:02;21.40;1.00
5901;DHT22;2976;49.764;9.796;2023-05-07T15:58:27;21.30;1.00
5901;DHT22;2976;49.764;9.796;2023-05-07T16:00:53;21.20;1.00
5901;DHT22;2976;49.764;9.796;2023-05-07T16:03:18;21.20;1.00
5901;DHT22;2976;49.764;9.796;2023-05-07T16:05:46;21.20;1.00
5901;DHT22;2976;49.764;9.796;2023-05-07T16:08:12;21.20;1.00
5901;DHT22;2976;49.764;9.796;2023-05-07T16:10:37;21.10;1.00
5901;DHT22;2976;49.764;9.796;2023-05-07T16:13:03;21.00;1.00
5901;DHT22;2976;49.764;9.796;2023-05-07T16:15:28;20.90;1.00